Allentown, New Jersey
Current Conditions -  °F | °C
As of 1:58 AM on Tuesday 21 Oct 2014 (Local Time) from KWRI Reporting Station
Scattered Clouds Scattered Clouds  
Wind Chill: 50°   Ceiling: Unl
Heat Index: 50°   Visibility: 10mi
Dew Point: 45°   Wind: 2mph
Humidity: 81%   Direction: 130°SE
Pressure: 29.92"   Gusts: NA
Location:  40.18°N, 74.58°W
Report Text: KWRI 210558Z AUTO 13002KT 10SM FEW050 SCT140 SCT160 10/07 A2992 RMK AO2 SLP135 T01020071 10116 20092 57016
Loading
Personal Weather Stations






























Interactive Weather Map
Tropical Storm Tracking
New forecast layout! Learn more

10-Day Weather Forecast

Advertisements
Track Severe Weather on mobile